No particular awareness of the weather is required.    There are no Weather-warnings


Meteo18 Weather Cam more information Meteo18 Weather Cam


Thunder radar more information blitzortung!


Rain radar more information rain snow radar


Visit our other weather sites:

Template documentation
and downloads

And another site



Weather Underground History page Text

Daily Summary for March 27, 2017 Units:  Both    English   Metric
« Previous Day
Next Day »
Daily Weekly Monthly Yearly Custom
  High: Low: Average:
Temperature: TemperatureC °F /  -17.8 °C 5.6 °F /  -14.7 °C 12.6 °F /  -10.8 °C
Dew Point: DewpointC °F /  -17.8 °C 3.6 °F /  -15.8 °C 6 °F /  -14.4 °C
Humidity: Humidity % 39 % 66 %
Wind Speed: WindSpeedKMH mph /  0 km/h - 2.8 mph /  4.5 km/h
Wind Gust: WindSpeedGustKMH mph /  0 km/h - -
Wind:- - South
Pressure: PressurehPa in /  0 hPa 1018.8 in /  34496.6 hPa -
Precipitation: 0.0 in /  0 mm    
Historical Graphs
 
 
Tabular Data for March 27, 2017
Time Temperature Dew Point Pressure Wind Wind Speed Wind Gust Humidity Rainfall Rate (Hourly)
TemperatureC °F /  -17.8 °C DewpointC °F /  -17.8 °C PressurehPa in /  0 hPa Calm     Humidity % HourlyPrecipMM in /  0 mm
00:02 10.3 °F /  -12.1 °C 5.7 °F /  -14.6 °C 1020.9 in /  34567.7 hPa Calm   6.4 mph /  10.3 km/h 73 % 0.0 in /  0 mm
00:12 10.2 °F /  -12.1 °C 5.8 °F /  -14.6 °C 1020.5 in /  34554.1 hPa ENE 1.6 mph /  2.6 km/h 4.8 mph /  7.7 km/h 74 % 0.0 in /  0 mm
00:17 10.1 °F /  -12.2 °C 5.9 °F /  -14.5 °C 1020.5 in /  34554.1 hPa Calm   4.8 mph /  7.7 km/h 75 % 0.0 in /  0 mm
00:22 10.1 °F /  -12.2 °C 5.9 °F /  -14.5 °C 1020.5 in /  34554.1 hPa NNE 1.6 mph /  2.6 km/h 4.8 mph /  7.7 km/h 75 % 0.0 in /  0 mm
00:32 10.1 °F /  -12.2 °C 5.9 °F /  -14.5 °C 1020.5 in /  34554.1 hPa Calm   3.2 mph /  5.1 km/h 75 % 0.0 in /  0 mm
00:42 10.0 °F /  -12.2 °C 5.8 °F /  -14.6 °C 1020.5 in /  34554.1 hPa Calm   1.6 mph /  2.6 km/h 75 % 0.0 in /  0 mm
00:52 9.2 °F /  -12.7 °C 5.6 °F /  -14.7 °C 1020.5 in /  34554.1 hPa WNW 1.6 mph /  2.6 km/h 3.2 mph /  5.1 km/h 78 % 0.0 in /  0 mm
00:57 9.6 °F /  -12.4 °C 5.8 °F /  -14.6 °C 1020.5 in /  34554.1 hPa NNW 1.6 mph /  2.6 km/h 3.2 mph /  5.1 km/h 77 % 0.0 in /  0 mm
01:02 9.6 °F /  -12.4 °C 5.6 °F /  -14.7 °C 1020.5 in /  34554.1 hPa NNW 1.6 mph /  2.6 km/h 3.2 mph /  5.1 km/h 76 % 0.0 in /  0 mm
01:12 9.2 °F /  -12.7 °C 5.7 °F /  -14.6 °C 1020.5 in /  34554.1 hPa Calm   3.2 mph /  5.1 km/h 79 % 0.0 in /  0 mm
01:17 9.3 °F /  -12.6 °C 5.7 °F /  -14.6 °C 1020.5 in /  34554.1 hPa NNW 1.6 mph /  2.6 km/h 1.6 mph /  2.6 km/h 78 % 0.0 in /  0 mm
01:22 9.3 °F /  -12.6 °C 5.7 °F /  -14.6 °C 1020.5 in /  34554.1 hPa Calm   1.6 mph /  2.6 km/h 78 % 0.0 in /  0 mm
01:27 9.3 °F /  -12.6 °C 5.5 °F /  -14.7 °C 1020.5 in /  34554.1 hPa NNW 1.6 mph /  2.6 km/h 1.6 mph /  2.6 km/h 77 % 0.0 in /  0 mm
01:32 9.3 °F /  -12.6 °C 5.5 °F /  -14.7 °C 1020.5 in /  34554.1 hPa NNW 1.6 mph /  2.6 km/h 1.6 mph /  2.6 km/h 77 % 0.0 in /  0 mm
01:42 9.2 °F /  -12.7 °C 5.6 °F /  -14.7 °C 1020.5 in /  34554.1 hPa Calm   3.2 mph /  5.1 km/h 78 % 0.0 in /  0 mm
01:52 9.1 °F /  -12.7 °C 5.7 °F /  -14.6 °C 1020.5 in /  34554.1 hPa Calm   3.2 mph /  5.1 km/h 79 % 0.0 in /  0 mm
01:57 8.8 °F /  -12.9 °C 5.4 °F /  -14.8 °C 1020.5 in /  34554.1 hPa North 1.6 mph /  2.6 km/h 6.4 mph /  10.3 km/h 79 % 0.0 in /  0 mm
02:02 8.7 °F /  -12.9 °C 5.4 °F /  -14.8 °C 1020.5 in /  34554.1 hPa North 3.2 mph /  5.1 km/h 6.4 mph /  10.3 km/h 80 % 0.0 in /  0 mm
02:12 8.8 °F /  -12.9 °C 5.5 °F /  -14.7 °C 1020.5 in /  34554.1 hPa Calm   4.8 mph /  7.7 km/h 80 % 0.0 in /  0 mm
02:17 8.7 °F /  -12.9 °C 5.3 °F /  -14.8 °C 1020.2 in /  34544 hPa Calm   3.2 mph /  5.1 km/h 79 % 0.0 in /  0 mm
02:22 8.3 °F /  -13.2 °C 5.1 °F /  -14.9 °C 1020.2 in /  34544 hPa North 1.6 mph /  2.6 km/h 3.2 mph /  5.1 km/h 80 % 0.0 in /  0 mm
02:27 8.1 °F /  -13.3 °C 5.2 °F /  -14.9 °C 1020.2 in /  34544 hPa North 1.6 mph /  2.6 km/h 3.2 mph /  5.1 km/h 82 % 0.0 in /  0 mm
02:37 8.2 °F /  -13.2 °C 5.3 °F /  -14.8 °C 1020.2 in /  34544 hPa Calm   3.2 mph /  5.1 km/h 82 % 0.0 in /  0 mm
02:42 8.2 °F /  -13.2 °C 5.3 °F /  -14.8 °C 1020.2 in /  34544 hPa NNE 3.2 mph /  5.1 km/h 4.8 mph /  7.7 km/h 82 % 0.0 in /  0 mm
02:47 7.9 °F /  -13.4 °C 5.0 °F /  -15 °C 1020.2 in /  34544 hPa North 3.2 mph /  5.1 km/h 4.8 mph /  7.7 km/h 82 % 0.0 in /  0 mm
02:52 7.9 °F /  -13.4 °C 5.2 °F /  -14.9 °C 1020.2 in /  34544 hPa Calm   4.8 mph /  7.7 km/h 83 % 0.0 in /  0 mm
02:57 7.8 °F /  -13.4 °C 5.1 °F /  -14.9 °C 1020.2 in /  34544 hPa Calm   4.8 mph /  7.7 km/h 83 % 0.0 in /  0 mm
03:02 7.8 °F /  -13.4 °C 5.1 °F /  -14.9 °C 1020.2 in /  34544 hPa Calm   4.8 mph /  7.7 km/h 83 % 0.0 in /  0 mm
03:12 7.9 °F /  -13.4 °C 5.2 °F /  -14.9 °C 1020.2 in /  34544 hPa Calm   3.2 mph /  5.1 km/h 83 % 0.0 in /  0 mm
03:17 7.9 °F /  -13.4 °C 5.2 °F /  -14.9 °C 1019.9 in /  34533.8 hPa NW 1.6 mph /  2.6 km/h 3.2 mph /  5.1 km/h 83 % 0.0 in /  0 mm
03:22 7.9 °F /  -13.4 °C 5.2 °F /  -14.9 °C 1019.9 in /  34533.8 hPa Calm   3.2 mph /  5.1 km/h 83 % 0.0 in /  0 mm
03:32 7.7 °F /  -13.5 °C 5.0 °F /  -15 °C 1019.9 in /  34533.8 hPa WNW 1.6 mph /  2.6 km/h 1.6 mph /  2.6 km/h 83 % 0.0 in /  0 mm
03:37 7.4 °F /  -13.7 °C 4.9 °F /  -15.1 °C 1019.9 in /  34533.8 hPa WNW 1.6 mph /  2.6 km/h 1.6 mph /  2.6 km/h 84 % 0.0 in /  0 mm
03:42 7.9 °F /  -13.4 °C 5.4 °F /  -14.8 °C 1019.9 in /  34533.8 hPa WNW 1.6 mph /  2.6 km/h 3.2 mph /  5.1 km/h 84 % 0.0 in /  0 mm
03:47 8.2 °F /  -13.2 °C 5.3 °F /  -14.8 °C 1019.9 in /  34533.8 hPa Calm   3.2 mph /  5.1 km/h 82 % 0.0 in /  0 mm
03:52 8.1 °F /  -13.3 °C 5.2 °F /  -14.9 °C 1019.9 in /  34533.8 hPa Calm   3.2 mph /  5.1 km/h 82 % 0.0 in /  0 mm
03:57 8.1 °F /  -13.3 °C 5.2 °F /  -14.9 °C 1019.9 in /  34533.8 hPa Calm   1.6 mph /  2.6 km/h 82 % 0.0 in /  0 mm
04:02 8.1 °F /  -13.3 °C 5.0 °F /  -15 °C 1019.9 in /  34533.8 hPa Calm   1.6 mph /  2.6 km/h 81 % 0.0 in /  0 mm
04:07 8.0 °F /  -13.3 °C 5.1 °F /  -14.9 °C 1019.9 in /  34533.8 hPa Calm     82 % 0.0 in /  0 mm
04:12 8.1 °F /  -13.3 °C 5.2 °F /  -14.9 °C 1019.9 in /  34533.8 hPa Calm     82 % 0.0 in /  0 mm
04:17 8.0 °F /  -13.3 °C 5.1 °F /  -14.9 °C 1019.9 in /  34533.8 hPa Calm     82 % 0.0 in /  0 mm
04:22 8.2 °F /  -13.2 °C 5.1 °F /  -14.9 °C 1019.9 in /  34533.8 hPa Calm     81 % 0.0 in /  0 mm
04:32 8.2 °F /  -13.2 °C 5.1 °F /  -14.9 °C 1019.9 in /  34533.8 hPa Calm     81 % 0.0 in /  0 mm
04:37 8.1 °F /  -13.3 °C 5.0 °F /  -15 °C 1019.9 in /  34533.8 hPa Calm     81 % 0.0 in /  0 mm
04:42 7.9 °F /  -13.4 °C 4.8 °F /  -15.1 °C 1019.5 in /  34520.3 hPa Calm     81 % 0.0 in /  0 mm
04:47 7.7 °F /  -13.5 °C 4.6 °F /  -15.2 °C 1019.5 in /  34520.3 hPa Calm     81 % 0.0 in /  0 mm
04:52 7.5 °F /  -13.6 °C 5.0 °F /  -15 °C 1019.5 in /  34520.3 hPa Calm     84 % 0.0 in /  0 mm
05:02 7.6 °F /  -13.6 °C 4.7 °F /  -15.2 °C 1019.5 in /  34520.3 hPa Calm     82 % 0.0 in /  0 mm
05:12 7.9 °F /  -13.4 °C 5.0 °F /  -15 °C 1019.5 in /  34520.3 hPa Calm     82 % 0.0 in /  0 mm
05:17 7.8 °F /  -13.4 °C 4.9 °F /  -15.1 °C 1019.5 in /  34520.3 hPa Calm     82 % 0.0 in /  0 mm
05:22 7.7 °F /  -13.5 °C 4.8 °F /  -15.1 °C 1019.5 in /  34520.3 hPa Calm     82 % 0.0 in /  0 mm
05:27 7.6 °F /  -13.6 °C 4.9 °F /  -15.1 °C 1019.2 in /  34510.1 hPa Calm     83 % 0.0 in /  0 mm
05:32 7.4 °F /  -13.7 °C 4.7 °F /  -15.2 °C 1019.5 in /  34520.3 hPa NNE 3.2 mph /  5.1 km/h   83 % 0.0 in /  0 mm
05:42 7.1 °F /  -13.8 °C 4.2 °F /  -15.4 °C 1019.2 in /  34510.1 hPa Calm   3.2 mph /  5.1 km/h 82 % 0.0 in /  0 mm
05:52 6.7 °F /  -14.1 °C 4.5 °F /  -15.3 °C 1019.5 in /  34520.3 hPa Calm   3.2 mph /  5.1 km/h 86 % 0.0 in /  0 mm
05:57 6.7 °F /  -14.1 °C 4.4 °F /  -15.3 °C 1019.5 in /  34520.3 hPa Calm   3.2 mph /  5.1 km/h 85 % 0.0 in /  0 mm
06:02 6.2 °F /  -14.3 °C 3.9 °F /  -15.6 °C 1019.5 in /  34520.3 hPa Calm   1.6 mph /  2.6 km/h 85 % 0.0 in /  0 mm
06:12 6.1 °F /  -14.4 °C 3.9 °F /  -15.6 °C 1019.5 in /  34520.3 hPa Calm   1.6 mph /  2.6 km/h 86 % 0.0 in /  0 mm
06:17 6.1 °F /  -14.4 °C 4.4 °F /  -15.3 °C 1019.5 in /  34520.3 hPa Calm   1.6 mph /  2.6 km/h 89 % 0.0 in /  0 mm
06:22 6.4 °F /  -14.2 °C 4.6 °F /  -15.2 °C 1019.5 in /  34520.3 hPa Calm     88 % 0.0 in /  0 mm
06:32 6.6 °F /  -14.1 °C 4.6 °F /  -15.2 °C 1019.5 in /  34520.3 hPa Calm     87 % 0.0 in /  0 mm
06:37 6.8 °F /  -14 °C 4.8 °F /  -15.1 °C 1019.5 in /  34520.3 hPa Calm     87 % 0.0 in /  0 mm
06:42 6.9 °F /  -13.9 °C 4.7 °F /  -15.2 °C 1019.5 in /  34520.3 hPa Calm     86 % 0.0 in /  0 mm
06:47 7.1 °F /  -13.8 °C 4.9 °F /  -15.1 °C 1019.5 in /  34520.3 hPa Calm     86 % 0.0 in /  0 mm
06:52 7.1 °F /  -13.8 °C 4.7 °F /  -15.2 °C 1019.5 in /  34520.3 hPa Calm     85 % 0.0 in /  0 mm
07:02 6.4 °F /  -14.2 °C 4.1 °F /  -15.5 °C 1019.5 in /  34520.3 hPa Calm     85 % 0.0 in /  0 mm
07:07 6.5 °F /  -14.2 °C 4.5 °F /  -15.3 °C 1019.5 in /  34520.3 hPa Calm     87 % 0.0 in /  0 mm
07:12 6.6 °F /  -14.1 °C 4.4 °F /  -15.3 °C 1019.5 in /  34520.3 hPa Calm     86 % 0.0 in /  0 mm
07:17 6.3 °F /  -14.3 °C 3.8 °F /  -15.7 °C 1019.5 in /  34520.3 hPa Calm     84 % 0.0 in /  0 mm
07:22 5.9 °F /  -14.5 °C 3.9 °F /  -15.6 °C 1019.5 in /  34520.3 hPa WNW 1.6 mph /  2.6 km/h   87 % 0.0 in /  0 mm
07:27 5.8 °F /  -14.6 °C 4.0 °F /  -15.6 °C 1019.5 in /  34520.3 hPa Calm     88 % 0.0 in /  0 mm
07:32 6.1 °F /  -14.4 °C 4.4 °F /  -15.3 °C 1019.5 in /  34520.3 hPa Calm   3.2 mph /  5.1 km/h 89 % 0.0 in /  0 mm
07:37 6.1 °F /  -14.4 °C 4.3 °F /  -15.4 °C 1019.5 in /  34520.3 hPa Calm   3.2 mph /  5.1 km/h 88 % 0.0 in /  0 mm
07:42 5.9 °F /  -14.5 °C 4.1 °F /  -15.5 °C 1019.9 in /  34533.8 hPa Calm   1.6 mph /  2.6 km/h 88 % 0.0 in /  0 mm
07:52 6.1 °F /  -14.4 °C 4.3 °F /  -15.4 °C 1019.9 in /  34533.8 hPa Calm   3.2 mph /  5.1 km/h 88 % 0.0 in /  0 mm
08:02 5.6 °F /  -14.7 °C 3.6 °F /  -15.8 °C 1019.9 in /  34533.8 hPa West 1.6 mph /  2.6 km/h 3.2 mph /  5.1 km/h 87 % 0.0 in /  0 mm
08:12 6.0 °F /  -14.4 °C 4.3 °F /  -15.4 °C 1019.9 in /  34533.8 hPa Calm   4.8 mph /  7.7 km/h 89 % 0.0 in /  0 mm
08:17 6.3 °F /  -14.3 °C 4.6 °F /  -15.2 °C 1019.9 in /  34533.8 hPa Calm   4.8 mph /  7.7 km/h 89 % 0.0 in /  0 mm
08:22 5.9 °F /  -14.5 °C 3.6 °F /  -15.8 °C 1019.9 in /  34533.8 hPa WNW 1.6 mph /  2.6 km/h 1.6 mph /  2.6 km/h 85 % 0.0 in /  0 mm
08:32 6.3 °F /  -14.3 °C 4.6 °F /  -15.2 °C 1019.9 in /  34533.8 hPa North 1.6 mph /  2.6 km/h 3.2 mph /  5.1 km/h 89 % 0.0 in /  0 mm
08:42 7.1 °F /  -13.8 °C 4.9 °F /  -15.1 °C 1019.9 in /  34533.8 hPa Calm   4.8 mph /  7.7 km/h 86 % 0.0 in /  0 mm
08:47 7.3 °F /  -13.7 °C 4.9 °F /  -15.1 °C 1019.9 in /  34533.8 hPa NE 3.2 mph /  5.1 km/h 4.8 mph /  7.7 km/h 85 % 0.0 in /  0 mm
08:52 7.4 °F /  -13.7 °C 4.9 °F /  -15.1 °C 1019.9 in /  34533.8 hPa NNE 1.6 mph /  2.6 km/h 4.8 mph /  7.7 km/h 84 % 0.0 in /  0 mm
09:02 7.7 °F /  -13.5 °C 5.2 °F /  -14.9 °C 1019.9 in /  34533.8 hPa Calm   6.4 mph /  10.3 km/h 84 % 0.0 in /  0 mm
09:12 8.4 °F /  -13.1 °C 6.0 °F /  -14.4 °C 1019.9 in /  34533.8 hPa Calm   6.4 mph /  10.3 km/h 85 % 0.0 in /  0 mm
09:17 8.5 °F /  -13.1 °C 5.8 °F /  -14.6 °C 1019.9 in /  34533.8 hPa Calm   6.4 mph /  10.3 km/h 83 % 0.0 in /  0 mm
09:22 8.8 °F /  -12.9 °C 6.1 °F /  -14.4 °C 1019.9 in /  34533.8 hPa Calm   4.8 mph /  7.7 km/h 83 % 0.0 in /  0 mm
09:32 9.1 °F /  -12.7 °C 5.8 °F /  -14.6 °C 1019.9 in /  34533.8 hPa North 1.6 mph /  2.6 km/h 4.8 mph /  7.7 km/h 80 % 0.0 in /  0 mm
09:42 9.6 °F /  -12.4 °C 6.1 °F /  -14.4 °C 1019.5 in /  34520.3 hPa East 1.6 mph /  2.6 km/h 3.2 mph /  5.1 km/h 79 % 0.0 in /  0 mm
09:47 9.9 °F /  -12.3 °C 6.2 °F /  -14.3 °C 1019.9 in /  34533.8 hPa Calm   3.2 mph /  5.1 km/h 78 % 0.0 in /  0 mm
09:52 9.9 °F /  -12.3 °C 6.2 °F /  -14.3 °C 1019.9 in /  34533.8 hPa Calm   4.8 mph /  7.7 km/h 78 % 0.0 in /  0 mm
10:02 10.0 °F /  -12.2 °C 6.7 °F /  -14.1 °C 1019.9 in /  34533.8 hPa ENE 1.6 mph /  2.6 km/h 8.0 mph /  12.9 km/h 80 % 0.0 in /  0 mm
10:12 10.4 °F /  -12 °C 6.5 °F /  -14.2 °C 1019.9 in /  34533.8 hPa ENE 4.8 mph /  7.7 km/h 6.4 mph /  10.3 km/h 77 % 0.0 in /  0 mm
10:17 10.6 °F /  -11.9 °C 6.7 °F /  -14.1 °C 1019.9 in /  34533.8 hPa East 4.8 mph /  7.7 km/h 6.4 mph /  10.3 km/h 77 % 0.0 in /  0 mm
10:22 10.7 °F /  -11.8 °C 6.8 °F /  -14 °C 1019.9 in /  34533.8 hPa NE 3.2 mph /  5.1 km/h 8.0 mph /  12.9 km/h 77 % 0.0 in /  0 mm
10:32 11.2 °F /  -11.6 °C 7.3 °F /  -13.7 °C 1019.5 in /  34520.3 hPa ENE 4.8 mph /  7.7 km/h 9.7 mph /  15.6 km/h 77 % 0.0 in /  0 mm
10:42 11.6 °F /  -11.3 °C 7.5 °F /  -13.6 °C 1019.9 in /  34533.8 hPa East 3.2 mph /  5.1 km/h 9.7 mph /  15.6 km/h 76 % 0.0 in /  0 mm
10:52 12.3 °F /  -10.9 °C 7.2 °F /  -13.8 °C 1019.9 in /  34533.8 hPa SE 3.2 mph /  5.1 km/h 8.0 mph /  12.9 km/h 71 % 0.0 in /  0 mm
11:02 12.4 °F /  -10.9 °C 6.7 °F /  -14.1 °C 1019.9 in /  34533.8 hPa East 6.4 mph /  10.3 km/h 12.9 mph /  20.8 km/h 68 % 0.0 in /  0 mm
11:12 12.6 °F /  -10.8 °C 7.1 °F /  -13.8 °C 1019.9 in /  34533.8 hPa ENE 3.2 mph /  5.1 km/h 12.9 mph /  20.8 km/h 69 % 0.0 in /  0 mm
11:17 12.6 °F /  -10.8 °C 6.8 °F /  -14 °C 1019.9 in /  34533.8 hPa ESE 6.4 mph /  10.3 km/h 12.9 mph /  20.8 km/h 68 % 0.0 in /  0 mm
11:22 12.8 °F /  -10.7 °C 7.5 °F /  -13.6 °C 1019.9 in /  34533.8 hPa ESE 1.6 mph /  2.6 km/h 12.9 mph /  20.8 km/h 70 % 0.0 in /  0 mm
11:32 13.2 °F /  -10.4 °C 7.2 °F /  -13.8 °C 1019.9 in /  34533.8 hPa SE 6.4 mph /  10.3 km/h 9.7 mph /  15.6 km/h 67 % 0.0 in /  0 mm
11:37 13.1 °F /  -10.5 °C 7.5 °F /  -13.6 °C 1019.9 in /  34533.8 hPa ESE 3.2 mph /  5.1 km/h 9.7 mph /  15.6 km/h 69 % 0.0 in /  0 mm
11:42 13.5 °F /  -10.3 °C 7.9 °F /  -13.4 °C 1019.9 in /  34533.8 hPa SE 4.8 mph /  7.7 km/h 9.7 mph /  15.6 km/h 69 % 0.0 in /  0 mm
11:47 13.5 °F /  -10.3 °C 7.7 °F /  -13.5 °C 1019.9 in /  34533.8 hPa East 4.8 mph /  7.7 km/h 9.7 mph /  15.6 km/h 68 % 0.0 in /  0 mm
11:52 13.7 °F /  -10.2 °C 7.9 °F /  -13.4 °C 1019.9 in /  34533.8 hPa SE 4.8 mph /  7.7 km/h 8.0 mph /  12.9 km/h 68 % 0.0 in /  0 mm
11:57 13.7 °F /  -10.2 °C 7.7 °F /  -13.5 °C 1019.9 in /  34533.8 hPa SE 3.2 mph /  5.1 km/h 8.0 mph /  12.9 km/h 67 % 0.0 in /  0 mm
12:02 14.0 °F /  -10 °C 8.0 °F /  -13.3 °C 1019.9 in /  34533.8 hPa East 3.2 mph /  5.1 km/h 9.7 mph /  15.6 km/h 67 % 0.0 in /  0 mm
12:12 14.3 °F /  -9.8 °C 7.8 °F /  -13.4 °C 1019.5 in /  34520.3 hPa Calm   11.3 mph /  18.2 km/h 65 % 0.0 in /  0 mm
12:17 14.6 °F /  -9.7 °C 8.3 °F /  -13.2 °C 1019.5 in /  34520.3 hPa ESE 3.2 mph /  5.1 km/h 11.3 mph /  18.2 km/h 66 % 0.0 in /  0 mm
12:22 14.8 °F /  -9.6 °C 7.6 °F /  -13.6 °C 1019.5 in /  34520.3 hPa Calm   9.7 mph /  15.6 km/h 62 % 0.0 in /  0 mm
12:32 14.9 °F /  -9.5 °C 7.4 °F /  -13.7 °C 1019.5 in /  34520.3 hPa SSE 3.2 mph /  5.1 km/h 9.7 mph /  15.6 km/h 61 % 0.0 in /  0 mm
12:37 15.3 °F /  -9.3 °C 8.3 °F /  -13.2 °C 1019.5 in /  34520.3 hPa ENE 3.2 mph /  5.1 km/h 9.7 mph /  15.6 km/h 63 % 0.0 in /  0 mm
12:42 15.4 °F /  -9.2 °C 7.7 °F /  -13.5 °C 1019.5 in /  34520.3 hPa East 6.4 mph /  10.3 km/h 9.7 mph /  15.6 km/h 60 % 0.0 in /  0 mm
12:47 15.6 °F /  -9.1 °C 7.4 °F /  -13.7 °C 1019.5 in /  34520.3 hPa SSE 3.2 mph /  5.1 km/h 9.7 mph /  15.6 km/h 58 % 0.0 in /  0 mm
12:52 15.9 °F /  -8.9 °C 7.9 °F /  -13.4 °C 1019.5 in /  34520.3 hPa ENE 6.4 mph /  10.3 km/h 12.9 mph /  20.8 km/h 59 % 0.0 in /  0 mm
13:02 16.3 °F /  -8.7 °C 8.0 °F /  -13.3 °C 1019.5 in /  34520.3 hPa SE 4.8 mph /  7.7 km/h 17.7 mph /  28.5 km/h 58 % 0.0 in /  0 mm
13:12 16.4 °F /  -8.7 °C 7.1 °F /  -13.8 °C 1019.5 in /  34520.3 hPa SE 9.7 mph /  15.6 km/h 17.7 mph /  28.5 km/h 54 % 0.0 in /  0 mm
13:17 16.3 °F /  -8.7 °C 7.0 °F /  -13.9 °C 1019.5 in /  34520.3 hPa ESE 9.7 mph /  15.6 km/h 16.1 mph /  25.9 km/h 54 % 0.0 in /  0 mm
13:22 16.3 °F /  -8.7 °C 6.7 °F /  -14.1 °C 1019.5 in /  34520.3 hPa East 6.4 mph /  10.3 km/h 16.1 mph /  25.9 km/h 53 % 0.0 in /  0 mm
13:27 16.3 °F /  -8.7 °C 6.4 °F /  -14.2 °C 1019.5 in /  34520.3 hPa South 3.2 mph /  5.1 km/h 16.1 mph /  25.9 km/h 52 % 0.0 in /  0 mm
13:32 16.5 °F /  -8.6 °C 6.9 °F /  -13.9 °C 1019.5 in /  34520.3 hPa SSE 11.3 mph /  18.2 km/h 19.3 mph /  31.1 km/h 53 % 0.0 in /  0 mm
13:37 16.4 °F /  -8.7 °C 7.1 °F /  -13.8 °C 1019.5 in /  34520.3 hPa SE 4.8 mph /  7.7 km/h 19.3 mph /  31.1 km/h 54 % 0.0 in /  0 mm
13:42 16.7 °F /  -8.5 °C 7.3 °F /  -13.7 °C 1019.5 in /  34520.3 hPa ESE 6.4 mph /  10.3 km/h 19.3 mph /  31.1 km/h 54 % 0.0 in /  0 mm
13:47 16.7 °F /  -8.5 °C 7.1 °F /  -13.8 °C 1019.5 in /  34520.3 hPa SSE 9.7 mph /  15.6 km/h 19.3 mph /  31.1 km/h 53 % 0.0 in /  0 mm
13:52 16.7 °F /  -8.5 °C 6.5 °F /  -14.2 °C 1019.2 in /  34510.1 hPa South 9.7 mph /  15.6 km/h 19.3 mph /  31.1 km/h 51 % 0.0 in /  0 mm
13:57 16.8 °F /  -8.4 °C 7.2 °F /  -13.8 °C 1019.2 in /  34510.1 hPa ESE 6.4 mph /  10.3 km/h 19.3 mph /  31.1 km/h 53 % 0.0 in /  0 mm
14:02 16.9 °F /  -8.4 °C 6.4 °F /  -14.2 °C 1019.2 in /  34510.1 hPa SE 8.0 mph /  12.9 km/h 19.3 mph /  31.1 km/h 50 % 0.0 in /  0 mm
14:12 17.3 °F /  -8.2 °C 7.3 °F /  -13.7 °C 1019.2 in /  34510.1 hPa East 4.8 mph /  7.7 km/h 19.3 mph /  31.1 km/h 52 % 0.0 in /  0 mm
14:17 17.4 °F /  -8.1 °C 7.2 °F /  -13.8 °C 1019.2 in /  34510.1 hPa East 11.3 mph /  18.2 km/h 16.1 mph /  25.9 km/h 51 % 0.0 in /  0 mm
14:22 17.1 °F /  -8.3 °C 6.6 °F /  -14.1 °C 1019.2 in /  34510.1 hPa SE 9.7 mph /  15.6 km/h 16.1 mph /  25.9 km/h 50 % 0.0 in /  0 mm
14:27 17.0 °F /  -8.3 °C 6.8 °F /  -14 °C 1019.2 in /  34510.1 hPa SE 11.3 mph /  18.2 km/h 22.5 mph /  36.2 km/h 51 % 0.0 in /  0 mm
14:32 17.2 °F /  -8.2 °C 6.7 °F /  -14.1 °C 1019.2 in /  34510.1 hPa SE 8.0 mph /  12.9 km/h 22.5 mph /  36.2 km/h 50 % 0.0 in /  0 mm
14:37 17.1 °F /  -8.3 °C 6.3 °F /  -14.3 °C 1019.2 in /  34510.1 hPa ESE 11.3 mph /  18.2 km/h 22.5 mph /  36.2 km/h 49 % 0.0 in /  0 mm
14:42 17.0 °F /  -8.3 °C 6.8 °F /  -14 °C 1019.2 in /  34510.1 hPa ENE 8.0 mph /  12.9 km/h 19.3 mph /  31.1 km/h 51 % 0.0 in /  0 mm
14:47 17.3 °F /  -8.2 °C 7.1 °F /  -13.8 °C 1019.2 in /  34510.1 hPa SSE 4.8 mph /  7.7 km/h 19.3 mph /  31.1 km/h 51 % 0.0 in /  0 mm
14:52 17.1 °F /  -8.3 °C 6.0 °F /  -14.4 °C 1019.2 in /  34510.1 hPa SSW 6.4 mph /  10.3 km/h 19.3 mph /  31.1 km/h 48 % 0.0 in /  0 mm
15:02 17.3 °F /  -8.2 °C 6.5 °F /  -14.2 °C 1019.2 in /  34510.1 hPa ESE 6.4 mph /  10.3 km/h 16.1 mph /  25.9 km/h 49 % 0.0 in /  0 mm
15:12 17.4 °F /  -8.1 °C 7.7 °F /  -13.5 °C 1019.2 in /  34510.1 hPa SE 9.7 mph /  15.6 km/h 17.7 mph /  28.5 km/h 53 % 0.0 in /  0 mm
15:17 17.4 °F /  -8.1 °C 6.3 °F /  -14.3 °C 1019.2 in /  34510.1 hPa East 9.7 mph /  15.6 km/h 19.3 mph /  31.1 km/h 48 % 0.0 in /  0 mm
15:22 17.4 °F /  -8.1 °C 7.4 °F /  -13.7 °C 1019.2 in /  34510.1 hPa SE 8.0 mph /  12.9 km/h 19.3 mph /  31.1 km/h 52 % 0.0 in /  0 mm
15:27 17.6 °F /  -8 °C 6.8 °F /  -14 °C 1018.8 in /  34496.6 hPa ESE 4.8 mph /  7.7 km/h 20.9 mph /  33.6 km/h 49 % 0.0 in /  0 mm
15:32 17.7 °F /  -7.9 °C 7.7 °F /  -13.5 °C 1018.8 in /  34496.6 hPa NE 9.7 mph /  15.6 km/h 20.9 mph /  33.6 km/h 52 % 0.0 in /  0 mm
15:37 17.6 °F /  -8 °C 7.6 °F /  -13.6 °C 1018.8 in /  34496.6 hPa East 4.8 mph /  7.7 km/h 20.9 mph /  33.6 km/h 52 % 0.0 in /  0 mm
15:42 17.9 °F /  -7.8 °C 7.9 °F /  -13.4 °C 1018.8 in /  34496.6 hPa SE 9.7 mph /  15.6 km/h 12.9 mph /  20.8 km/h 52 % 0.0 in /  0 mm
15:47 17.9 °F /  -7.8 °C 6.4 °F /  -14.2 °C 1018.8 in /  34496.6 hPa ESE 1.6 mph /  2.6 km/h 14.5 mph /  23.3 km/h 47 % 0.0 in /  0 mm
15:52 17.9 °F /  -7.8 °C 7.0 °F /  -13.9 °C 1018.8 in /  34496.6 hPa ESE 3.2 mph /  5.1 km/h 19.3 mph /  31.1 km/h 49 % 0.0 in /  0 mm
15:57 18.3 °F /  -7.6 °C 5.8 °F /  -14.6 °C 1018.8 in /  34496.6 hPa South 8.0 mph /  12.9 km/h 19.3 mph /  31.1 km/h 44 % 0.0 in /  0 mm
16:02 18.5 °F /  -7.5 °C 5.3 °F /  -14.8 °C 1018.8 in /  34496.6 hPa SE 9.7 mph /  15.6 km/h 16.1 mph /  25.9 km/h 42 % 0.0 in /  0 mm
16:12 18.7 °F /  -7.4 °C 5.2 °F /  -14.9 °C 1018.8 in /  34496.6 hPa SE 4.8 mph /  7.7 km/h 14.5 mph /  23.3 km/h 41 % 0.0 in /  0 mm
16:17 18.8 °F /  -7.3 °C 5.6 °F /  -14.7 °C 1018.8 in /  34496.6 hPa SSW 9.7 mph /  15.6 km/h 17.7 mph /  28.5 km/h 42 % 0.0 in /  0 mm
16:22 18.9 °F /  -7.3 °C 5.7 °F /  -14.6 °C 1018.8 in /  34496.6 hPa SSE 12.9 mph /  20.8 km/h 17.7 mph /  28.5 km/h 42 % 0.0 in /  0 mm
16:32 18.8 °F /  -7.3 °C 5.6 °F /  -14.7 °C 1018.8 in /  34496.6 hPa SSE 11.3 mph /  18.2 km/h 17.7 mph /  28.5 km/h 42 % 0.0 in /  0 mm
16:37 18.9 °F /  -7.3 °C 6.0 °F /  -14.4 °C 1018.8 in /  34496.6 hPa SE 3.2 mph /  5.1 km/h 17.7 mph /  28.5 km/h 43 % 0.0 in /  0 mm
16:42 19.2 °F /  -7.1 °C 6.3 °F /  -14.3 °C 1018.8 in /  34496.6 hPa SSE 6.4 mph /  10.3 km/h 16.1 mph /  25.9 km/h 43 % 0.0 in /  0 mm
16:47 19.3 °F /  -7.1 °C 6.1 °F /  -14.4 °C 1018.8 in /  34496.6 hPa SE 3.2 mph /  5.1 km/h 19.3 mph /  31.1 km/h 42 % 0.0 in /  0 mm
16:52 19.3 °F /  -7.1 °C 5.0 °F /  -15 °C 1018.8 in /  34496.6 hPa SW 9.7 mph /  15.6 km/h 19.3 mph /  31.1 km/h 39 % 0.0 in /  0 mm
17:02 19.3 °F /  -7.1 °C 5.7 °F /  -14.6 °C 1018.8 in /  34496.6 hPa SE 3.2 mph /  5.1 km/h 16.1 mph /  25.9 km/h 41 % 0.0 in /  0 mm
17:12 19.4 °F /  -7 °C 6.2 °F /  -14.3 °C 1018.8 in /  34496.6 hPa SSW 6.4 mph /  10.3 km/h 16.1 mph /  25.9 km/h 42 % 0.0 in /  0 mm
17:17 19.3 °F /  -7.1 °C 5.7 °F /  -14.6 °C 1018.8 in /  34496.6 hPa South 14.5 mph /  23.3 km/h 17.7 mph /  28.5 km/h 41 % 0.0 in /  0 mm
17:22 19.2 °F /  -7.1 °C 6.0 °F /  -14.4 °C 1018.8 in /  34496.6 hPa SSE 8.0 mph /  12.9 km/h 17.7 mph /  28.5 km/h 42 % 0.0 in /  0 mm
17:32 19.4 °F /  -7 °C 6.5 °F /  -14.2 °C 1018.8 in /  34496.6 hPa SSW 8.0 mph /  12.9 km/h 20.9 mph /  33.6 km/h 43 % 0.0 in /  0 mm
17:37 19.6 °F /  -6.9 °C 6.3 °F /  -14.3 °C 1018.8 in /  34496.6 hPa SSW 8.0 mph /  12.9 km/h 20.9 mph /  33.6 km/h 42 % 0.0 in /  0 mm
17:42 19.7 °F /  -6.8 °C 6.8 °F /  -14 °C 1018.8 in /  34496.6 hPa South 3.2 mph /  5.1 km/h 14.5 mph /  23.3 km/h 43 % 0.0 in /  0 mm
17:52 19.7 °F /  -6.8 °C 6.1 °F /  -14.4 °C 1018.8 in /  34496.6 hPa SSE 11.3 mph /  18.2 km/h 16.1 mph /  25.9 km/h 41 % 0.0 in /  0 mm
17:57 19.7 °F /  -6.8 °C 6.1 °F /  -14.4 °C 1018.8 in /  34496.6 hPa SSE 1.6 mph /  2.6 km/h 16.1 mph /  25.9 km/h 41 % 0.0 in /  0 mm
18:02 19.6 °F /  -6.9 °C 6.3 °F /  -14.3 °C 1018.8 in /  34496.6 hPa SSW 1.6 mph /  2.6 km/h 16.1 mph /  25.9 km/h 42 % 0.0 in /  0 mm
18:12 19.9 °F /  -6.7 °C 6.9 °F /  -13.9 °C 1018.8 in /  34496.6 hPa SSE 6.4 mph /  10.3 km/h 16.1 mph /  25.9 km/h 43 % 0.0 in /  0 mm
18:17 19.7 °F /  -6.8 °C 7.1 °F /  -13.8 °C 1019.2 in /  34510.1 hPa SE 1.6 mph /  2.6 km/h 9.7 mph /  15.6 km/h 44 % 0.0 in /  0 mm
18:22 19.8 °F /  -6.8 °C 7.2 °F /  -13.8 °C 1019.2 in /  34510.1 hPa ESE 3.2 mph /  5.1 km/h 9.7 mph /  15.6 km/h 44 % 0.0 in /  0 mm
18:32 19.8 °F /  -6.8 °C 6.5 °F /  -14.2 °C 1019.2 in /  34510.1 hPa SSE 4.8 mph /  7.7 km/h 11.3 mph /  18.2 km/h 42 % 0.0 in /  0 mm
18:37 19.7 °F /  -6.8 °C 6.4 °F /  -14.2 °C 1019.2 in /  34510.1 hPa SE 3.2 mph /  5.1 km/h 9.7 mph /  15.6 km/h 42 % 0.0 in /  0 mm
18:42 19.7 °F /  -6.8 °C 6.8 °F /  -14 °C 1019.2 in /  34510.1 hPa SSE 3.2 mph /  5.1 km/h 9.7 mph /  15.6 km/h 43 % 0.0 in /  0 mm
18:52 19.4 °F /  -7 °C 6.5 °F /  -14.2 °C 1019.2 in /  34510.1 hPa SE 6.4 mph /  10.3 km/h 11.3 mph /  18.2 km/h 43 % 0.0 in /  0 mm
18:57 19.3 °F /  -7.1 °C 7.1 °F /  -13.8 °C 1019.2 in /  34510.1 hPa Calm   11.3 mph /  18.2 km/h 45 % 0.0 in /  0 mm
19:02 19.3 °F /  -7.1 °C 6.4 °F /  -14.2 °C 1019.2 in /  34510.1 hPa Calm   11.3 mph /  18.2 km/h 43 % 0.0 in /  0 mm
19:12 19.3 °F /  -7.1 °C 6.4 °F /  -14.2 °C 1018.8 in /  34496.6 hPa SSE 1.6 mph /  2.6 km/h 8.0 mph /  12.9 km/h 43 % 0.0 in /  0 mm
19:17 19.3 °F /  -7.1 °C 7.4 °F /  -13.7 °C 1019.2 in /  34510.1 hPa SE 3.2 mph /  5.1 km/h 8.0 mph /  12.9 km/h 46 % 0.0 in /  0 mm
19:22 19.4 °F /  -7 °C 6.8 °F /  -14 °C 1019.2 in /  34510.1 hPa Calm   8.0 mph /  12.9 km/h 44 % 0.0 in /  0 mm
19:27 19.6 °F /  -6.9 °C 6.7 °F /  -14.1 °C 1019.2 in /  34510.1 hPa SSE 1.6 mph /  2.6 km/h 8.0 mph /  12.9 km/h 43 % 0.0 in /  0 mm
19:32 19.6 °F /  -6.9 °C 7.0 °F /  -13.9 °C 1019.2 in /  34510.1 hPa Calm   6.4 mph /  10.3 km/h 44 % 0.0 in /  0 mm
19:37 19.7 °F /  -6.8 °C 7.1 °F /  -13.8 °C 1019.2 in /  34510.1 hPa Calm   6.4 mph /  10.3 km/h 44 % 0.0 in /  0 mm
19:42 19.7 °F /  -6.8 °C 7.4 °F /  -13.7 °C 1019.2 in /  34510.1 hPa Calm   6.4 mph /  10.3 km/h 45 % 0.0 in /  0 mm
19:47 19.5 °F /  -6.9 °C 7.6 °F /  -13.6 °C 1019.2 in /  34510.1 hPa Calm   3.2 mph /  5.1 km/h 46 % 0.0 in /  0 mm
19:52 19.3 °F /  -7.1 °C 7.4 °F /  -13.7 °C 1019.2 in /  34510.1 hPa Calm   1.6 mph /  2.6 km/h 46 % 0.0 in /  0 mm
19:57 18.7 °F /  -7.4 °C 7.2 °F /  -13.8 °C 1019.2 in /  34510.1 hPa Calm   1.6 mph /  2.6 km/h 47 % 0.0 in /  0 mm
20:02 18.3 °F /  -7.6 °C 7.1 °F /  -13.8 °C 1019.2 in /  34510.1 hPa Calm     48 % 0.0 in /  0 mm
20:07 17.9 °F /  -7.8 °C 6.7 °F /  -14.1 °C 1019.2 in /  34510.1 hPa Calm     48 % 0.0 in /  0 mm
20:12 17.4 °F /  -8.1 °C 6.9 °F /  -13.9 °C 1019.5 in /  34520.3 hPa Calm     50 % 0.0 in /  0 mm
20:22 16.6 °F /  -8.6 °C 6.7 °F /  -14.1 °C 1019.5 in /  34520.3 hPa Calm     52 % 0.0 in /  0 mm
20:27 16.3 °F /  -8.7 °C 6.7 °F /  -14.1 °C 1019.5 in /  34520.3 hPa Calm     53 % 0.0 in /  0 mm
20:37 16.1 °F /  -8.8 °C 6.5 °F /  -14.2 °C 1019.5 in /  34520.3 hPa Calm   1.6 mph /  2.6 km/h 53 % 0.0 in /  0 mm
20:42 16.1 °F /  -8.8 °C 6.5 °F /  -14.2 °C 1019.5 in /  34520.3 hPa Calm   1.6 mph /  2.6 km/h 53 % 0.0 in /  0 mm
20:52 15.7 °F /  -9.1 °C 6.4 °F /  -14.2 °C 1019.5 in /  34520.3 hPa Calm   1.6 mph /  2.6 km/h 54 % 0.0 in /  0 mm
20:57 15.2 °F /  -9.3 °C 6.5 °F /  -14.2 °C 1019.5 in /  34520.3 hPa NNW 3.2 mph /  5.1 km/h   56 % 0.0 in /  0 mm
21:02 14.8 °F /  -9.6 °C 6.4 °F /  -14.2 °C 1019.5 in /  34520.3 hPa WNW 1.6 mph /  2.6 km/h 3.2 mph /  5.1 km/h 57 % 0.0 in /  0 mm
21:12 14.3 °F /  -9.8 °C 6.4 °F /  -14.2 °C 1019.9 in /  34533.8 hPa WNW 3.2 mph /  5.1 km/h 4.8 mph /  7.7 km/h 59 % 0.0 in /  0 mm
21:17 14.6 °F /  -9.7 °C 6.4 °F /  -14.2 °C 1019.9 in /  34533.8 hPa WNW 1.6 mph /  2.6 km/h 3.2 mph /  5.1 km/h 58 % 0.0 in /  0 mm
21:22 14.4 °F /  -9.8 °C 6.5 °F /  -14.2 °C 1019.9 in /  34533.8 hPa WNW 1.6 mph /  2.6 km/h 3.2 mph /  5.1 km/h 59 % 0.0 in /  0 mm
21:32 13.9 °F /  -10.1 °C 6.3 °F /  -14.3 °C 1019.9 in /  34533.8 hPa NW 1.6 mph /  2.6 km/h 3.2 mph /  5.1 km/h 60 % 0.0 in /  0 mm
21:42 13.2 °F /  -10.4 °C 6.5 °F /  -14.2 °C 1019.9 in /  34533.8 hPa NNW 3.2 mph /  5.1 km/h 3.2 mph /  5.1 km/h 64 % 0.0 in /  0 mm
21:47 13.0 °F /  -10.6 °C 6.6 °F /  -14.1 °C 1019.9 in /  34533.8 hPa NW 3.2 mph /  5.1 km/h 3.2 mph /  5.1 km/h 65 % 0.0 in /  0 mm
21:52 13.1 °F /  -10.5 °C 6.4 °F /  -14.2 °C 1020.2 in /  34544 hPa Calm   4.8 mph /  7.7 km/h 64 % 0.0 in /  0 mm
21:57 12.9 °F /  -10.6 °C 6.0 °F /  -14.4 °C 1020.2 in /  34544 hPa Calm   4.8 mph /  7.7 km/h 63 % 0.0 in /  0 mm
22:02 12.9 °F /  -10.6 °C 6.0 °F /  -14.4 °C 1020.2 in /  34544 hPa NW 3.2 mph /  5.1 km/h 4.8 mph /  7.7 km/h 63 % 0.0 in /  0 mm
22:07 13.2 °F /  -10.4 °C 6.3 °F /  -14.3 °C 1020.2 in /  34544 hPa Calm   3.2 mph /  5.1 km/h 63 % 0.0 in /  0 mm
22:12 12.8 °F /  -10.7 °C 6.4 °F /  -14.2 °C 1020.2 in /  34544 hPa NW 1.6 mph /  2.6 km/h 3.2 mph /  5.1 km/h 65 % 0.0 in /  0 mm
22:17 12.3 °F /  -10.9 °C 6.1 °F /  -14.4 °C 1020.2 in /  34544 hPa NW 1.6 mph /  2.6 km/h 3.2 mph /  5.1 km/h 66 % 0.0 in /  0 mm
22:22 12.2 °F /  -11 °C 6.0 °F /  -14.4 °C 1020.2 in /  34544 hPa Calm   3.2 mph /  5.1 km/h 66 % 0.0 in /  0 mm
22:27 12.1 °F /  -11.1 °C 5.9 °F /  -14.5 °C 1020.5 in /  34554.1 hPa North 3.2 mph /  5.1 km/h 3.2 mph /  5.1 km/h 66 % 0.0 in /  0 mm
22:32 12.2 °F /  -11 °C 6.0 °F /  -14.4 °C 1020.2 in /  34544 hPa NNW 3.2 mph /  5.1 km/h 4.8 mph /  7.7 km/h 66 % 0.0 in /  0 mm
22:37 12.5 °F /  -10.8 °C 5.9 °F /  -14.5 °C 1020.5 in /  34554.1 hPa North 3.2 mph /  5.1 km/h 4.8 mph /  7.7 km/h 64 % 0.0 in /  0 mm
22:42 12.5 °F /  -10.8 °C 5.9 °F /  -14.5 °C 1020.5 in /  34554.1 hPa NNW 1.6 mph /  2.6 km/h 4.8 mph /  7.7 km/h 64 % 0.0 in /  0 mm
22:52 11.9 °F /  -11.2 °C 6.0 °F /  -14.4 °C 1020.5 in /  34554.1 hPa ESE 3.2 mph /  5.1 km/h 4.8 mph /  7.7 km/h 67 % 0.0 in /  0 mm
22:57 11.2 °F /  -11.6 °C 5.9 °F /  -14.5 °C 1020.5 in /  34554.1 hPa NE 3.2 mph /  5.1 km/h 3.2 mph /  5.1 km/h 70 % 0.0 in /  0 mm
23:02 11.4 °F /  -11.4 °C 6.1 °F /  -14.4 °C 1020.5 in /  34554.1 hPa NE 3.2 mph /  5.1 km/h 4.8 mph /  7.7 km/h 70 % 0.0 in /  0 mm
23:07 11.6 °F /  -11.3 °C 5.9 °F /  -14.5 °C 1020.5 in /  34554.1 hPa Calm   4.8 mph /  7.7 km/h 68 % 0.0 in /  0 mm
23:12 11.7 °F /  -11.3 °C 5.8 °F /  -14.6 °C 1020.5 in /  34554.1 hPa NNW 3.2 mph /  5.1 km/h 4.8 mph /  7.7 km/h 67 % 0.0 in /  0 mm
23:17 11.6 °F /  -11.3 °C 5.7 °F /  -14.6 °C 1020.5 in /  34554.1 hPa WNW 4.8 mph /  7.7 km/h 4.8 mph /  7.7 km/h 67 % 0.0 in /  0 mm
23:22 11.2 °F /  -11.6 °C 5.5 °F /  -14.7 °C 1020.5 in /  34554.1 hPa WNW 1.6 mph /  2.6 km/h 4.8 mph /  7.7 km/h 68 % 0.0 in /  0 mm
23:32 11.6 °F /  -11.3 °C 5.5 °F /  -14.7 °C 1020.5 in /  34554.1 hPa WNW 1.6 mph /  2.6 km/h 4.8 mph /  7.7 km/h 66 % 0.0 in /  0 mm
23:37 11.2 °F /  -11.6 °C 5.5 °F /  -14.7 °C 1020.9 in /  34567.7 hPa WNW 1.6 mph /  2.6 km/h 4.8 mph /  7.7 km/h 68 % 0.0 in /  0 mm
23:42 11.0 °F /  -11.7 °C 5.5 °F /  -14.7 °C 1020.9 in /  34567.7 hPa WNW 1.6 mph /  2.6 km/h 4.8 mph /  7.7 km/h 69 % 0.0 in /  0 mm
23:52 10.3 °F /  -12.1 °C 5.3 °F /  -14.8 °C 1020.9 in /  34567.7 hPa West 1.6 mph /  2.6 km/h 3.2 mph /  5.1 km/h 71 % 0.0 in /  0 mm
23:57 10.1 °F /  -12.2 °C 5.5 °F /  -14.7 °C 1020.9 in /  34567.7 hPa West 1.6 mph /  2.6 km/h 3.2 mph /  5.1 km/h 73 % 0.0 in /  0 mm
Meteo18
Compliments of Weather Underground - 4 mb

Script developed by  Jim McMurry - jmcmurry@mwt.net Adapted for the template by  Wim van der Kuil - Leuven-Template.eu

You find our weather info also at:

European Weather Network

Weather Underground

Equipment we use:

Weather-station
Davis Vue

Weather-program
Meteobridge

Weather-server
Raspberry PI 2 B+

Provider
1 and 1

Davis Vue

Meteobridge

Raspberry PI 2 B+

1 and 1